Terminal Aerodrome Forecast
Issued by NWS

Current Version | Previous Version | Text Only | Print | Product List | Glossary Off
Versions: 1 2 3 4 5 6 7 8 9 10 11 12 13 14 15 16 17 18 19 20 21 22 23 24 25 26 27 28

890
FTUS41 KILN 261016 AAA
TAFLCK
TAF AMD
KLCK 261016Z 2610/2706 23011KT P6SM BKN060
      TEMPO 2610/2611 04012G22KT 5SM -SHRA BKN040
     FM261700 27011KT P6SM VCTS BKN040CB
      TEMPO 2620/2622 4SM -TSRA BKN035CB
     FM262200 01008KT P6SM VCSH SCT030 BKN100
     FM270200 02009KT P6SM BKN015
      AMD NOT SKED=

USA.gov is the U.S. government's official web portal to all federal, state and local government web resources and services.